Time;durP1;ratioP1;P1;durP2;ratioP2;P2;SDS_P1;SDS_P2;PMS_P1;PMS_P2;Temp;Humidity;BMP_temperature;BMP_pressure;BME280_temperature;BME280_humidity;BME280_pressure;Samples;Min_cycle;Max_cycle;Signal;HPM_P1;HPM_P2
2022/04/23 00:04:25;;;;;;;17.12;8.18;;;;;;;11.08;73.93;99393.97;18356296;32;20081;-63
2022/04/23 00:14:29;;;;;;;15.50;8.35;;;;;;;11.12;73.88;99393.03;18370450;32;20115;-63
2022/04/23 00:24:33;;;;;;;14.73;7.97;;;;;;;11.18;73.42;99389.41;18370146;32;20120;-63
2022/04/23 00:34:37;;;;;;;15.27;7.32;;;;;;;11.01;73.79;99385.41;18368660;32;20093;-63
2022/04/23 00:44:42;;;;;;;12.82;6.20;;;;;;;11.34;72.67;99395.16;18369665;32;20101;-63
2022/04/23 00:54:45;;;;;;;11.48;6.00;;;;;;;11.19;73.12;99393.75;18369106;32;20086;-63
2022/04/23 01:04:50;;;;;;;15.10;7.05;;;;;;;11.27;72.73;99390.97;18368988;32;20102;-63
2022/04/23 01:15:00;;;;;;;14.13;6.37;;;;;;;11.09;73.05;99398.28;18368698;32;20802;-63
2022/04/23 01:25:07;;;;;;;15.27;7.05;;;;;;;11.00;73.72;99404.56;18368184;32;20089;-63
2022/04/23 01:35:10;;;;;;;15.82;6.53;;;;;;;11.00;73.72;99401.09;18368359;32;20115;-63
2022/04/23 01:45:15;;;;;;;13.95;6.82;;;;;;;10.76;74.45;99395.47;18367263;32;20115;-63
2022/04/23 01:55:18;;;;;;;14.10;7.15;;;;;;;10.99;73.94;99401.97;18368112;32;20089;-62
2022/04/23 02:05:23;;;;;;;12.00;5.40;;;;;;;10.76;74.21;99398.06;18366842;32;20093;-63
2022/04/23 02:15:26;;;;;;;12.50;6.00;;;;;;;11.01;73.42;99393.22;18366539;32;20098;-63
2022/04/23 02:25:34;;;;;;;12.35;5.87;;;;;;;10.72;74.65;99409.44;18365971;32;20104;-63
2022/04/23 02:35:39;;;;;;;12.55;5.57;;;;;;;10.75;74.38;99414.63;18365736;32;20438;-63
2022/04/23 02:45:45;;;;;;;11.82;5.47;;;;;;;10.84;74.40;99422.28;18365048;32;20137;-63
2022/04/23 02:55:48;;;;;;;11.18;6.00;;;;;;;11.05;73.70;99430.59;18364490;32;20097;-63
2022/04/23 03:05:53;;;;;;;11.27;5.68;;;;;;;10.78;74.84;99425.00;18371899;32;20089;-63
2022/04/23 03:15:56;;;;;;;11.35;5.40;;;;;;;10.89;74.48;99441.31;18358156;32;20097;-63
2022/04/23 03:26:00;;;;;;;10.55;5.25;;;;;;;11.03;74.16;99429.78;18371709;32;20119;-63
2022/04/23 03:36:04;;;;;;;10.48;4.97;;;;;;;11.06;74.15;99441.03;18371280;32;20152;-63
2022/04/23 03:46:09;;;;;;;12.70;5.28;;;;;;;11.03;74.00;99448.91;18370973;32;20184;-63
2022/04/23 03:56:13;;;;;;;11.82;5.45;;;;;;;11.16;73.78;99459.13;18364683;32;20152;-63
2022/04/23 04:06:17;;;;;;;11.38;5.60;;;;;;;11.06;73.81;99459.31;18370619;32;20175;-63
2022/04/23 04:16:21;;;;;;;11.25;4.95;;;;;;;10.87;74.05;99461.38;18370666;32;20109;-63
2022/04/23 04:26:26;;;;;;;11.45;5.50;;;;;;;11.13;73.28;99462.66;18370000;32;20103;-63
2022/04/23 04:36:29;;;;;;;10.70;5.00;;;;;;;11.32;72.99;99472.72;18369538;32;20405;-63
2022/04/23 04:46:34;;;;;;;10.43;5.45;;;;;;;11.27;73.10;99469.34;18368952;32;20159;-63
2022/04/23 04:56:37;;;;;;;11.23;4.90;;;;;;;11.45;72.49;99474.19;18370014;32;20104;-63
2022/04/23 05:06:42;;;;;;;9.90;5.32;;;;;;;11.46;73.43;99475.91;18368813;32;20097;-63
2022/04/23 05:16:45;;;;;;;10.95;5.97;;;;;;;11.61;73.34;99479.09;18368798;32;20115;-62
2022/04/23 05:26:50;;;;;;;11.10;5.25;;;;;;;11.99;72.10;99495.72;18367553;32;20116;-63
2022/04/23 05:36:54;;;;;;;11.07;6.15;;;;;;;12.10;72.07;99502.47;18367743;32;20097;-63
2022/04/23 05:46:58;;;;;;;14.93;5.55;;;;;;;12.14;71.85;99498.87;18359020;32;20105;-62
2022/04/23 05:57:01;;;;;;;11.63;6.03;;;;;;;12.47;70.22;99499.88;18325295;32;20093;-62
2022/04/23 06:07:06;;;;;;;12.32;5.40;;;;;;;13.06;70.23;99494.88;18412429;32;20093;-62
2022/04/23 06:17:12;;;;;;;12.07;5.35;;;;;;;13.49;67.34;99511.19;18430659;32;20122;-62
2022/04/23 06:27:16;;;;;;;12.63;5.62;;;;;;;13.48;67.41;99522.59;18429771;32;20115;-62
2022/04/23 06:37:19;;;;;;;9.88;4.53;;;;;;;13.47;65.27;99536.59;18421977;32;20438;-62
2022/04/23 06:47:24;;;;;;;10.93;5.12;;;;;;;13.34;67.01;99551.78;18437233;32;20151;-62
2022/04/23 06:57:27;;;;;;;10.55;4.97;;;;;;;13.51;66.92;99558.34;18436612;32;20107;-63
2022/04/23 07:07:32;;;;;;;10.07;5.22;;;;;;;13.51;67.29;99574.09;18436274;32;20377;-63
2022/04/23 07:17:36;;;;;;;9.05;4.32;;;;;;;13.59;67.15;99570.34;18436302;32;20369;-63
2022/04/23 07:27:40;;;;;;;10.10;4.68;;;;;;;13.83;66.02;99585.41;18435875;32;20141;-63
2022/04/23 07:37:43;;;;;;;10.43;4.78;;;;;;;13.94;64.36;99600.84;18434753;32;20103;-63
2022/04/23 07:47:49;;;;;;;9.85;4.30;;;;;;;14.35;64.49;99604.00;18432401;32;20570;-63
2022/04/23 07:57:52;;;;;;;10.48;4.95;;;;;;;14.38;62.52;99601.31;18433694;32;20119;-63
2022/04/23 08:07:57;;;;;;;9.68;4.43;;;;;;;14.38;61.56;99624.06;18416429;32;20129;-63
2022/04/23 08:18:01;;;;;;;10.27;4.18;;;;;;;15.11;62.92;99633.16;18433839;32;20133;-63
2022/04/23 08:38:23;;;;;;;9.15;4.25;;;;;;;15.13;60.10;99643.63;18432936;32;20098;-64
2022/04/23 08:48:28;;;;;;;8.88;4.37;;;;;;;15.03;57.22;99636.94;18433515;32;20148;-64
2022/04/23 08:58:32;;;;;;;8.77;4.00;;;;;;;15.97;56.10;99635.47;18432139;32;20081;-63
2022/04/23 09:08:36;;;;;;;9.40;4.22;;;;;;;16.09;57.01;99645.56;18431902;32;20097;-63
2022/04/23 09:29:15;;;;;;;7.75;3.60;;;;;;;16.39;55.55;99657.63;18430051;32;20149;-63
2022/04/23 09:39:31;;;;;;;14.15;6.55;;;;;;;16.23;56.42;99674.03;18431680;32;20101;-63
2022/04/23 09:49:36;;;;;;;10.45;5.15;;;;;;;16.23;56.15;99674.03;18431299;32;20100;-63
2022/04/23 09:59:40;;;;;;;8.27;4.00;;;;;;;16.31;55.94;99686.03;18429275;32;20105;-63
2022/04/23 10:09:47;;;;;;;9.45;4.45;;;;;;;16.56;53.48;99691.25;18429741;32;20175;-63
2022/04/23 10:19:50;;;;;;;8.13;4.20;;;;;;;16.55;56.04;99686.91;18428990;32;20119;-63
2022/04/23 10:29:56;;;;;;;9.18;4.12;;;;;;;16.62;56.80;99695.41;18414659;32;20100;-63
2022/04/23 10:40:17;;;;;;;10.27;4.12;;;;;;;17.17;52.10;99713.47;18428132;32;20093;-63
2022/04/23 10:50:31;;;;;;;10.57;4.12;;;;;;;16.91;54.06;99711.84;18428316;32;20150;-63
2022/04/23 11:00:44;;;;;;;7.60;3.67;;;;;;;17.36;51.62;99712.72;18427676;32;20111;-63
2022/04/23 11:21:15;;;;;;;9.57;4.12;;;;;;;17.23;51.97;99715.00;18418447;32;20424;-63
2022/04/23 11:31:20;;;;;;;10.75;4.28;;;;;;;17.28;50.38;99726.22;18422387;32;20100;-63
2022/04/23 11:41:30;;;;;;;7.28;3.62;;;;;;;17.28;50.20;99713.03;18435522;32;20070;-63
2022/04/23 11:51:35;;;;;;;8.85;3.53;;;;;;;17.31;48.30;99714.66;18435448;32;20100;-63
2022/04/23 12:01:38;;;;;;;9.10;3.80;;;;;;;17.40;47.20;99713.44;18421492;32;20400;-63
2022/04/23 12:11:43;;;;;;;9.40;3.90;;;;;;;17.56;47.33;99713.66;18434683;32;20105;-63
2022/04/23 12:21:57;;;;;;;9.32;4.22;;;;;;;17.78;46.91;99720.66;18420918;32;20358;-63
2022/04/23 12:42:40;;;;;;;7.18;3.70;;;;;;;18.14;45.09;99710.31;18426640;32;20077;-63
2022/04/23 12:52:45;;;;;;;7.28;3.22;;;;;;;19.31;44.99;99683.72;18418601;32;20108;-63
2022/04/23 13:02:52;;;;;;;7.65;3.08;;;;;;;18.09;48.54;99690.31;18418915;32;20125;-63
2022/04/23 13:12:57;;;;;;;7.32;3.30;;;;;;;18.15;44.73;99672.41;18433170;32;20089;-63
2022/04/23 13:23:00;;;;;;;7.32;3.35;;;;;;;19.19;43.28;99676.38;18432902;32;20475;-63
2022/04/23 13:33:05;;;;;;;7.87;3.47;;;;;;;18.61;45.46;99676.47;18418445;32;20482;-63
2022/04/23 13:43:09;;;;;;;5.95;3.30;;;;;;;18.16;44.22;99666.19;18431696;32;20137;-63
2022/04/23 13:53:14;;;;;;;6.50;3.15;;;;;;;18.49;45.20;99675.25;18431913;32;20115;-63
2022/04/23 14:13:39;;;;;;;7.00;3.05;;;;;;;18.30;44.77;99672.59;18426250;32;20149;-64
2022/04/23 14:23:42;;;;;;;7.12;3.08;;;;;;;18.95;43.57;99669.53;18427303;32;20119;-63
2022/04/23 14:33:47;;;;;;;6.68;3.33;;;;;;;18.84;42.36;99671.88;18415548;32;20092;-63
2022/04/23 14:43:50;;;;;;;6.72;3.30;;;;;;;18.67;42.64;99681.44;18428339;32;20111;-63
2022/04/23 14:53:55;;;;;;;8.75;3.17;;;;;;;18.33;45.43;99688.34;18430024;32;20089;-63
2022/04/23 15:03:59;;;;;;;6.20;2.83;;;;;;;18.20;45.67;99703.00;18421706;32;20107;-63
2022/04/23 15:14:04;;;;;;;7.82;3.30;;;;;;;18.00;48.13;99712.66;18434355;32;20125;-63
2022/04/23 15:24:07;;;;;;;9.40;3.97;;;;;;;17.84;48.76;99721.25;18421064;32;20109;-63
2022/04/23 15:34:12;;;;;;;8.90;3.85;;;;;;;17.94;47.70;99716.44;18435235;32;20138;-63
2022/04/23 15:44:15;;;;;;;10.82;4.22;;;;;;;17.78;48.02;99702.16;18434205;32;20085;-63
2022/04/23 15:54:20;;;;;;;9.75;4.25;;;;;;;17.96;48.20;99704.00;18432483;32;20107;-63
2022/04/23 16:04:24;;;;;;;8.05;3.95;;;;;;;17.82;49.06;99701.13;18415190;32;20409;-64
2022/04/23 16:14:29;;;;;;;9.65;4.95;;;;;;;17.71;49.34;99701.59;18413963;32;20093;-63
2022/04/23 16:24:53;;;;;;;10.65;5.28;;;;;;;17.37;50.86;99703.87;18420329;32;20457;-64
2022/04/23 16:34:58;;;;;;;9.82;4.62;;;;;;;17.33;51.49;99703.16;18418049;32;20425;-63
2022/04/23 16:55:24;;;;;;;12.27;5.70;;;;;;;17.20;52.76;99715.12;18433176;32;20377;-63
2022/04/23 17:05:27;;;;;;;12.50;6.18;;;;;;;17.22;53.07;99723.84;18417117;32;20101;-63
2022/04/23 17:15:32;;;;;;;11.30;5.75;;;;;;;16.88;54.71;99717.22;18414327;32;20115;-63
2022/04/23 17:25:36;;;;;;;12.93;6.32;;;;;;;16.92;54.07;99710.94;18425711;32;20089;-63
2022/04/23 17:35:41;;;;;;;15.52;7.22;;;;;;;16.70;54.99;99709.16;18432647;32;20084;-63
2022/04/23 17:45:45;;;;;;;12.23;6.57;;;;;;;16.37;56.79;99699.84;18427097;32;20088;-63
2022/04/23 17:55:49;;;;;;;15.65;7.03;;;;;;;16.48;56.60;99707.31;18428953;32;20133;-63
2022/04/23 18:16:14;;;;;;;12.63;7.05;;;;;;;16.31;57.30;99722.88;18414495;32;20100;-63
2022/04/23 18:26:17;;;;;;;15.45;7.70;;;;;;;16.16;58.42;99737.47;18412744;32;20089;-63
2022/04/23 18:36:22;;;;;;;28.62;13.85;;;;;;;15.97;59.08;99745.19;18414612;32;20133;-63
2022/04/23 18:46:26;;;;;;;14.32;7.05;;;;;;;15.91;59.38;99744.47;18425901;32;20097;-63
2022/04/23 18:56:30;;;;;;;14.25;7.15;;;;;;;15.34;61.60;99760.38;18413839;32;20140;-63
2022/04/23 19:06:33;;;;;;;27.35;12.70;;;;;;;14.93;62.89;99749.41;18427976;32;20093;-63
2022/04/23 19:16:38;;;;;;;18.08;8.77;;;;;;;14.86;62.50;99729.47;18420756;32;20516;-64
2022/04/23 19:37:04;;;;;;;15.85;7.03;;;;;;;14.15;63.96;99741.09;18423410;32;20111;-63
2022/04/23 19:47:08;;;;;;;14.18;6.47;;;;;;;13.66;64.42;99757.25;18434172;32;20170;-63
2022/04/23 19:57:13;;;;;;;12.15;6.53;;;;;;;13.43;64.79;99769.12;18415775;32;20148;-63
2022/04/23 20:07:16;;;;;;;15.23;7.45;;;;;;;12.97;66.46;99760.56;18418851;32;20116;-63
2022/04/23 20:17:22;;;;;;;14.38;6.00;;;;;;;12.60;68.47;99777.94;18417185;32;20142;-63
2022/04/23 20:27:26;;;;;;;14.23;8.00;;;;;;;12.37;68.81;99778.38;18433750;32;20103;-63
2022/04/23 20:47:52;;;;;;;21.12;9.32;;;;;;;12.51;69.50;99785.97;18433627;32;20124;-63
2022/04/23 20:57:59;;;;;;;30.75;12.95;;;;;;;12.73;69.74;99781.16;18431555;32;20101;-63
2022/04/23 21:08:05;;;;;;;20.73;9.25;;;;;;;13.09;69.19;99790.88;18430170;32;20103;-63
2022/04/23 21:18:09;;;;;;;21.05;10.85;;;;;;;13.40;67.87;99771.81;18415749;32;20111;-63
2022/04/23 21:28:13;;;;;;;22.17;9.88;;;;;;;13.63;67.39;99786.16;18415477;32;20162;-63
2022/04/23 21:38:18;;;;;;;21.27;11.18;;;;;;;13.20;69.49;99792.41;18413024;32;20089;-63
2022/04/23 21:48:21;;;;;;;27.35;14.35;;;;;;;13.40;69.87;99797.16;18430241;32;20102;-63
2022/04/23 21:58:26;;;;;;;30.80;14.75;;;;;;;13.20;71.75;99795.03;18431305;32;20111;-64
2022/04/23 22:08:29;;;;;;;24.90;11.27;;;;;;;13.21;72.64;99800.22;18431755;32;20108;-64
2022/04/23 22:18:33;;;;;;;20.52;10.07;;;;;;;13.23;73.20;99789.69;18430755;32;20440;-64
2022/04/23 22:28:36;;;;;;;24.27;11.77;;;;;;;13.18;73.54;99787.19;18430178;32;20101;-64
2022/04/23 22:38:41;;;;;;;20.17;9.98;;;;;;;13.16;73.67;99768.88;18431005;32;20109;-64
2022/04/23 22:48:44;;;;;;;25.00;10.95;;;;;;;13.00;74.46;99767.50;18415807;32;20487;-64
2022/04/23 22:58:49;;;;;;;23.27;11.00;;;;;;;13.02;74.62;99758.69;18428611;32;20093;-64
2022/04/23 23:08:52;;;;;;;28.35;11.68;;;;;;;13.13;74.05;99737.50;18427933;32;20101;-64
2022/04/23 23:18:57;;;;;;;23.73;12.15;;;;;;;13.18;74.29;99730.41;18420271;32;20113;-64
2022/04/23 23:29:00;;;;;;;24.58;11.98;;;;;;;13.02;75.44;99745.59;18436273;32;20100;-64
2022/04/23 23:39:05;;;;;;;25.15;11.95;;;;;;;13.26;74.34;99732.84;18436079;32;20365;-64
2022/04/23 23:49:08;;;;;;;23.80;10.85;;;;;;;13.18;74.75;99730.41;18422268;32;20433;-64
2022/04/23 23:59:12;;;;;;;24.80;12.63;;;;;;;13.56;72.84;99719.87;18432581;32;76591;-64
